sensor_id;sensor_type;location;lat;lon;timestamp;temperature;humidity
46758;DHT22;32509;47.750;-3.396;2023-01-16T10:38:25;10.10;99.90
46758;DHT22;32509;47.750;-3.396;2023-01-16T10:41:40;10.10;99.90
46758;DHT22;32509;47.750;-3.396;2023-01-16T10:44:38;10.10;99.90
46758;DHT22;32509;47.750;-3.396;2023-01-16T10:50:08;10.10;99.90
46758;DHT22;32509;47.750;-3.396;2023-01-16T10:52:35;10.20;99.90
46758;DHT22;32509;47.750;-3.396;2023-01-16T10:55:02;10.20;99.90
46758;DHT22;32509;47.750;-3.396;2023-01-16T10:57:29;10.20;99.90
46758;DHT22;32509;47.750;-3.396;2023-01-16T11:00:00;10.20;99.90
46758;DHT22;32509;47.750;-3.396;2023-01-16T11:02:29;10.20;99.90
46758;DHT22;32509;47.750;-3.396;2023-01-16T11:04:55;10.20;99.90
46758;DHT22;32509;47.750;-3.396;2023-01-16T11:07:22;10.20;99.90
46758;DHT22;32509;47.750;-3.396;2023-01-16T11:09:48;10.20;99.90
46758;DHT22;32509;47.750;-3.396;2023-01-16T11:12:34;10.20;99.90
46758;DHT22;32509;47.750;-3.396;2023-01-16T11:15:24;10.20;99.90
46758;DHT22;32509;47.750;-3.396;2023-01-16T11:18:33;10.20;99.90
46758;DHT22;32509;47.750;-3.396;2023-01-16T11:21:30;10.30;99.90
46758;DHT22;32509;47.750;-3.396;2023-01-16T11:24:03;10.30;99.90
46758;DHT22;32509;47.750;-3.396;2023-01-16T11:26:29;10.30;99.90
46758;DHT22;32509;47.750;-3.396;2023-01-16T11:28:56;10.30;99.90
46758;DHT22;32509;47.750;-3.396;2023-01-16T11:31:27;10.40;99.90
46758;DHT22;32509;47.750;-3.396;2023-01-16T11:33:59;10.40;99.90
46758;DHT22;32509;47.750;-3.396;2023-01-16T11:36:32;10.40;99.90
46758;DHT22;32509;47.750;-3.396;2023-01-16T11:38:58;10.40;99.90
46758;DHT22;32509;47.750;-3.396;2023-01-16T11:41:29;10.40;99.90
46758;DHT22;32509;47.750;-3.396;2023-01-16T11:44:14;10.40;99.90
46758;DHT22;32509;47.750;-3.396;2023-01-16T11:47:00;10.40;99.90
46758;DHT22;32509;47.750;-3.396;2023-01-16T11:49:55;10.40;99.90
46758;DHT22;32509;47.750;-3.396;2023-01-16T11:52:22;10.40;99.90
46758;DHT22;32509;47.750;-3.396;2023-01-16T11:54:56;10.40;99.90
46758;DHT22;32509;47.750;-3.396;2023-01-16T11:57:32;10.40;99.90
46758;DHT22;32509;47.750;-3.396;2023-01-16T12:08:30;10.40;99.90
46758;DHT22;32509;47.750;-3.396;2023-01-16T12:11:01;10.30;99.90
46758;DHT22;32509;47.750;-3.396;2023-01-16T12:13:47;10.30;99.90
46758;DHT22;32509;47.750;-3.396;2023-01-16T12:19:13;10.30;99.90
46758;DHT22;32509;47.750;-3.396;2023-01-16T12:30:36;10.30;99.90
46758;DHT22;32509;47.750;-3.396;2023-01-16T12:33:27;10.30;99.90
46758;DHT22;32509;47.750;-3.396;2023-01-16T12:36:03;10.30;99.90
46758;DHT22;32509;47.750;-3.396;2023-01-16T12:38:36;10.30;99.90
46758;DHT22;32509;47.750;-3.396;2023-01-16T12:41:17;10.30;99.90
46758;DHT22;32509;47.750;-3.396;2023-01-16T12:47:01;10.30;99.90
46758;DHT22;32509;47.750;-3.396;2023-01-16T12:49:40;10.40;99.90
46758;DHT22;32509;47.750;-3.396;2023-01-16T12:54:44;10.40;99.90
46758;DHT22;32509;47.750;-3.396;2023-01-16T13:00:06;10.40;99.90
46758;DHT22;32509;47.750;-3.396;2023-01-16T13:02:41;10.40;99.90
46758;DHT22;32509;47.750;-3.396;2023-01-16T13:05:14;10.40;99.90
46758;DHT22;32509;47.750;-3.396;2023-01-16T13:08:04;10.40;99.90
46758;DHT22;32509;47.750;-3.396;2023-01-16T13:10:36;10.40;99.90
46758;DHT22;32509;47.750;-3.396;2023-01-16T13:13:27;10.40;99.90
46758;DHT22;32509;47.750;-3.396;2023-01-16T13:18:47;10.40;99.90
46758;DHT22;32509;47.750;-3.396;2023-01-16T13:21:25;10.40;99.90
46758;DHT22;32509;47.750;-3.396;2023-01-16T13:24:31;10.40;99.90
46758;DHT22;32509;47.750;-3.396;2023-01-16T13:26:58;10.40;99.90
46758;DHT22;32509;47.750;-3.396;2023-01-16T13:29:40;10.40;99.90
46758;DHT22;32509;47.750;-3.396;2023-01-16T13:32:34;10.40;99.90
46758;DHT22;32509;47.750;-3.396;2023-01-16T13:35:05;10.40;99.90
46758;DHT22;32509;47.750;-3.396;2023-01-16T13:37:54;10.40;99.90
46758;DHT22;32509;47.750;-3.396;2023-01-16T15:59:27;10.10;99.90
46758;DHT22;32509;47.750;-3.396;2023-01-16T16:01:55;10.10;99.90
46758;DHT22;32509;47.750;-3.396;2023-01-16T16:04:33;10.10;99.90
46758;DHT22;32509;47.750;-3.396;2023-01-16T16:06:59;10.10;99.90
46758;DHT22;32509;47.750;-3.396;2023-01-16T16:09:26;10.10;99.90
46758;DHT22;32509;47.750;-3.396;2023-01-16T16:11:53;10.00;99.90
46758;DHT22;32509;47.750;-3.396;2023-01-16T16:14:30;10.00;99.90
46758;DHT22;32509;47.750;-3.396;2023-01-16T16:17:28;10.00;99.90
46758;DHT22;32509;47.750;-3.396;2023-01-16T16:28:15;10.00;99.90
46758;DHT22;32509;47.750;-3.396;2023-01-16T16:30:42;10.00;99.90
46758;DHT22;32509;47.750;-3.396;2023-01-16T16:33:17;10.00;99.90
46758;DHT22;32509;47.750;-3.396;2023-01-16T16:35:53;9.90;99.90
46758;DHT22;32509;47.750;-3.396;2023-01-16T16:38:30;9.90;99.90
46758;DHT22;32509;47.750;-3.396;2023-01-16T16:43:56;9.90;99.90
46758;DHT22;32509;47.750;-3.396;2023-01-16T16:51:42;9.80;99.90
46758;DHT22;32509;47.750;-3.396;2023-01-16T16:54:09;9.80;99.90
46758;DHT22;32509;47.750;-3.396;2023-01-16T16:56:37;9.80;99.90
46758;DHT22;32509;47.750;-3.396;2023-01-16T16:59:04;9.80;99.90
46758;DHT22;32509;47.750;-3.396;2023-01-16T17:01:33;9.80;99.90
46758;DHT22;32509;47.750;-3.396;2023-01-16T17:04:02;9.80;99.90
46758;DHT22;32509;47.750;-3.396;2023-01-16T17:06:31;9.70;99.90
46758;DHT22;32509;47.750;-3.396;2023-01-16T17:08:58;9.70;99.90
46758;DHT22;32509;47.750;-3.396;2023-01-16T17:11:25;9.70;99.90
46758;DHT22;32509;47.750;-3.396;2023-01-16T17:13:51;9.70;99.90
46758;DHT22;32509;47.750;-3.396;2023-01-16T17:16:19;9.70;99.90
46758;DHT22;32509;47.750;-3.396;2023-01-16T17:18:46;9.70;99.90
46758;DHT22;32509;47.750;-3.396;2023-01-16T17:21:17;9.60;99.90
46758;DHT22;32509;47.750;-3.396;2023-01-16T17:23:44;9.60;99.90
46758;DHT22;32509;47.750;-3.396;2023-01-16T17:26:11;9.60;99.90
46758;DHT22;32509;47.750;-3.396;2023-01-16T17:28:38;9.60;99.90
46758;DHT22;32509;47.750;-3.396;2023-01-16T17:31:06;9.60;99.90
46758;DHT22;32509;47.750;-3.396;2023-01-16T17:33:32;9.50;99.90
46758;DHT22;32509;47.750;-3.396;2023-01-16T17:35:58;9.50;99.90
46758;DHT22;32509;47.750;-3.396;2023-01-16T17:38:38;9.50;99.90
46758;DHT22;32509;47.750;-3.396;2023-01-16T17:41:06;9.50;99.90
46758;DHT22;32509;47.750;-3.396;2023-01-16T17:43:38;9.50;99.90
46758;DHT22;32509;47.750;-3.396;2023-01-16T17:46:23;9.40;99.90
46758;DHT22;32509;47.750;-3.396;2023-01-16T17:48:50;9.40;99.90
46758;DHT22;32509;47.750;-3.396;2023-01-16T17:51:16;9.40;99.90
46758;DHT22;32509;47.750;-3.396;2023-01-16T17:53:47;9.40;99.90
46758;DHT22;32509;47.750;-3.396;2023-01-16T17:56:13;9.40;99.90
46758;DHT22;32509;47.750;-3.396;2023-01-16T17:58:40;9.40;99.90
46758;DHT22;32509;47.750;-3.396;2023-01-16T18:01:14;9.40;99.90
46758;DHT22;32509;47.750;-3.396;2023-01-16T18:03:47;9.30;99.90
46758;DHT22;32509;47.750;-3.396;2023-01-16T18:06:15;9.40;99.90
46758;DHT22;32509;47.750;-3.396;2023-01-16T18:08:47;9.30;99.90
46758;DHT22;32509;47.750;-3.396;2023-01-16T18:11:12;9.30;99.90
46758;DHT22;32509;47.750;-3.396;2023-01-16T18:13:57;9.30;99.90
46758;DHT22;32509;47.750;-3.396;2023-01-16T18:16:41;9.30;99.90
46758;DHT22;32509;47.750;-3.396;2023-01-16T18:19:25;9.30;99.90
46758;DHT22;32509;47.750;-3.396;2023-01-16T18:21:51;9.30;99.90
46758;DHT22;32509;47.750;-3.396;2023-01-16T18:24:29;9.30;99.90
46758;DHT22;32509;47.750;-3.396;2023-01-16T18:26:56;9.20;99.90
46758;DHT22;32509;47.750;-3.396;2023-01-16T18:29:22;9.30;99.90
46758;DHT22;32509;47.750;-3.396;2023-01-16T18:31:48;9.20;99.90
46758;DHT22;32509;47.750;-3.396;2023-01-16T18:34:32;9.30;99.90
46758;DHT22;32509;47.750;-3.396;2023-01-16T18:36:58;9.20;99.90
46758;DHT22;32509;47.750;-3.396;2023-01-16T18:39:24;9.20;99.90
46758;DHT22;32509;47.750;-3.396;2023-01-16T18:42:09;9.20;99.90
46758;DHT22;32509;47.750;-3.396;2023-01-16T18:44:54;9.20;99.90
46758;DHT22;32509;47.750;-3.396;2023-01-16T18:47:38;9.20;99.90
46758;DHT22;32509;47.750;-3.396;2023-01-16T18:50:22;9.20;99.90
46758;DHT22;32509;47.750;-3.396;2023-01-16T18:55:57;9.20;99.90
46758;DHT22;32509;47.750;-3.396;2023-01-16T18:58:41;9.20;99.90
46758;DHT22;32509;47.750;-3.396;2023-01-16T19:01:45;9.20;99.90
46758;DHT22;32509;47.750;-3.396;2023-01-16T19:04:29;9.20;99.90
46758;DHT22;32509;47.750;-3.396;2023-01-16T19:06:58;9.20;99.90
46758;DHT22;32509;47.750;-3.396;2023-01-16T19:09:25;9.20;99.90
46758;DHT22;32509;47.750;-3.396;2023-01-16T19:11:51;9.20;99.90
46758;DHT22;32509;47.750;-3.396;2023-01-16T19:14:18;9.20;99.90
46758;DHT22;32509;47.750;-3.396;2023-01-16T19:16:44;9.20;99.90
46758;DHT22;32509;47.750;-3.396;2023-01-16T19:19:14;9.20;99.90
46758;DHT22;32509;47.750;-3.396;2023-01-16T19:21:41;9.20;99.90
46758;DHT22;32509;47.750;-3.396;2023-01-16T19:24:09;9.20;99.90
46758;DHT22;32509;47.750;-3.396;2023-01-16T19:26:36;9.20;99.90
46758;DHT22;32509;47.750;-3.396;2023-01-16T19:29:07;9.20;99.90
46758;DHT22;32509;47.750;-3.396;2023-01-16T19:31:33;9.20;99.90
46758;DHT22;32509;47.750;-3.396;2023-01-16T19:33:59;9.20;99.90
46758;DHT22;32509;47.750;-3.396;2023-01-16T19:36:24;9.20;99.90
46758;DHT22;32509;47.750;-3.396;2023-01-16T19:38:51;9.20;99.90
46758;DHT22;32509;47.750;-3.396;2023-01-16T19:41:18;9.20;99.90
46758;DHT22;32509;47.750;-3.396;2023-01-16T19:44:03;9.10;99.90
46758;DHT22;32509;47.750;-3.396;2023-01-16T19:46:48;9.20;99.90
46758;DHT22;32509;47.750;-3.396;2023-01-16T19:49:14;9.10;99.90
46758;DHT22;32509;47.750;-3.396;2023-01-16T19:51:40;9.10;99.90
46758;DHT22;32509;47.750;-3.396;2023-01-16T19:54:06;9.10;99.90
46758;DHT22;32509;47.750;-3.396;2023-01-16T19:56:33;9.10;99.90
46758;DHT22;32509;47.750;-3.396;2023-01-16T19:59:03;9.20;99.90
46758;DHT22;32509;47.750;-3.396;2023-01-16T20:01:31;9.20;99.90
46758;DHT22;32509;47.750;-3.396;2023-01-16T20:04:01;9.10;99.90
